createdAt,value
2018-01-16T00:01:24.959Z,8.90
2018-01-16T00:06:26.273Z,8.93
2018-01-16T00:11:27.586Z,9.01
2018-01-16T00:16:29.844Z,9.02
2018-01-16T00:21:31.210Z,9.03
2018-01-16T00:26:32.539Z,9.08
2018-01-16T00:31:33.911Z,9.08
2018-01-16T00:36:35.266Z,9.11
2018-01-16T00:41:37.423Z,9.22
2018-01-16T00:46:38.722Z,8.90
2018-01-16T00:51:40.063Z,8.88
2018-01-16T00:56:41.383Z,8.89
2018-01-16T01:01:42.711Z,8.88
2018-01-16T01:06:44.026Z,8.82
2018-01-16T01:11:45.336Z,8.79
2018-01-16T01:16:46.723Z,8.81
2018-01-16T01:21:48.048Z,8.71
2018-01-16T01:26:49.407Z,8.92
2018-01-16T01:31:50.758Z,8.90
2018-01-16T01:36:53.067Z,8.93
2018-01-16T01:41:54.400Z,9.04
2018-01-16T01:46:55.815Z,8.97
2018-01-16T01:51:57.145Z,9.00
2018-01-16T01:56:59.195Z,8.94
2018-01-16T02:02:00.593Z,8.98
2018-01-16T02:07:01.919Z,8.95
2018-01-16T02:12:03.239Z,8.91
2018-01-16T02:17:04.576Z,8.87
2018-01-16T02:22:05.909Z,8.65
2018-01-16T02:27:07.950Z,8.48
2018-01-16T02:32:09.286Z,8.68
2018-01-16T02:37:10.589Z,8.69
2018-01-16T02:42:11.953Z,8.68
2018-01-16T02:47:13.332Z,8.71
2018-01-16T02:52:14.699Z,8.67
2018-01-16T02:57:16.026Z,8.54
2018-01-16T03:02:17.331Z,8.35
2018-01-16T03:07:19.411Z,8.32
2018-01-16T03:12:20.744Z,8.28
2018-01-16T03:17:22.136Z,8.37
2018-01-16T03:22:23.463Z,8.29
2018-01-16T03:27:24.798Z,8.31
2018-01-16T03:32:26.841Z,8.22
2018-01-16T03:37:28.204Z,8.32
2018-01-16T03:42:30.282Z,8.23
2018-01-16T03:47:31.574Z,8.15
2018-01-16T03:52:32.899Z,8.19
2018-01-16T03:57:34.194Z,8.20
2018-01-16T04:02:35.522Z,8.16
2018-01-16T04:07:36.831Z,8.18
2018-01-16T04:12:38.182Z,8.45
2018-01-16T04:17:39.487Z,8.45
2018-01-16T04:22:40.803Z,8.60
2018-01-16T04:27:42.102Z,8.73
2018-01-16T04:32:44.147Z,8.71
2018-01-16T04:37:45.472Z,8.72
2018-01-16T04:42:46.794Z,8.69
2018-01-16T04:47:48.846Z,8.56
2018-01-16T04:52:50.148Z,8.24
2018-01-16T04:57:51.519Z,6.92
2018-01-16T05:02:52.851Z,6.67
2018-01-16T05:07:54.167Z,6.61
2018-01-16T05:12:55.548Z,6.53
2018-01-16T05:17:56.851Z,6.41
2018-01-16T05:22:58.207Z,6.45
2018-01-16T05:27:59.502Z,6.45
2018-01-16T05:33:01.584Z,6.70
2018-01-16T05:38:02.929Z,6.84
2018-01-16T05:43:11.071Z,6.88
2018-01-16T05:48:12.472Z,7.07
2018-01-16T05:53:13.779Z,7.13
2018-01-16T05:58:15.255Z,7.22
2018-01-16T06:03:16.583Z,7.17
2018-01-16T06:08:17.890Z,7.14
2018-01-16T06:13:19.226Z,6.99
2018-01-16T06:18:20.552Z,7.00
2018-01-16T06:23:21.882Z,6.99
2018-01-16T06:28:23.216Z,7.01
2018-01-16T06:33:24.581Z,6.99
2018-01-16T06:38:25.906Z,6.95
2018-01-16T06:43:34.341Z,6.90
2018-01-16T06:48:35.684Z,6.95
2018-01-16T06:53:37.037Z,6.79
2018-01-16T06:58:38.354Z,6.86
2018-01-16T07:03:39.671Z,6.90
2018-01-16T07:08:40.968Z,6.45
2018-01-16T07:13:42.262Z,6.28
2018-01-16T07:18:43.587Z,6.35
2018-01-16T07:23:44.888Z,6.21
2018-01-16T07:28:46.202Z,6.17
2018-01-16T07:33:47.506Z,6.11
2018-01-16T07:38:48.813Z,5.98
2018-01-16T07:43:57.063Z,6.03
2018-01-16T07:48:58.372Z,5.97
2018-01-16T07:53:59.690Z,5.97
2018-01-16T07:59:01.000Z,6.03
2018-01-16T08:04:02.322Z,6.02
2018-01-16T08:09:03.686Z,6.06
2018-01-16T08:14:05.010Z,6.29
2018-01-16T08:19:06.361Z,6.33
2018-01-16T08:24:08.422Z,6.42
2018-01-16T08:29:09.747Z,6.59
2018-01-16T08:34:11.794Z,6.50
2018-01-16T08:39:13.111Z,6.59
2018-01-16T08:44:14.437Z,6.51
2018-01-16T08:49:16.487Z,6.55
2018-01-16T08:54:17.802Z,6.43
2018-01-16T08:59:19.094Z,6.49
2018-01-16T09:04:20.421Z,6.55
2018-01-16T09:09:21.713Z,6.53
2018-01-16T09:14:23.034Z,6.81
2018-01-16T09:19:24.388Z,7.02
2018-01-16T09:24:25.722Z,7.31
2018-01-16T09:29:27.007Z,7.43
2018-01-16T09:34:28.383Z,7.66
2018-01-16T09:39:29.686Z,7.75
2018-01-16T09:44:30.996Z,7.77
2018-01-16T09:49:32.302Z,7.83
2018-01-16T09:54:34.364Z,7.81
2018-01-16T09:59:35.679Z,7.81
2018-01-16T10:04:36.978Z,7.72
2018-01-16T10:09:38.299Z,7.67
2018-01-16T10:14:39.615Z,7.69
2018-01-16T10:19:40.919Z,7.80
2018-01-16T10:24:42.239Z,7.90
2018-01-16T10:29:43.570Z,8.00
2018-01-16T10:34:44.862Z,7.87
2018-01-16T10:39:46.178Z,7.85
2018-01-16T10:44:47.491Z,7.93
2018-01-16T10:49:49.686Z,7.89
2018-01-16T10:54:51.002Z,7.75
2018-01-16T10:59:53.035Z,7.87
2018-01-16T11:04:54.334Z,7.85
2018-01-16T11:09:55.664Z,7.82
2018-01-16T11:14:56.996Z,7.45
2018-01-16T11:19:58.311Z,7.41
2018-01-16T11:24:59.611Z,7.44
2018-01-16T11:30:00.948Z,7.31
2018-01-16T11:35:03.054Z,7.23
2018-01-16T11:40:05.119Z,7.36
2018-01-16T11:45:06.455Z,7.30
2018-01-16T11:50:07.781Z,7.38
2018-01-16T11:55:09.161Z,7.48
2018-01-16T12:00:10.454Z,7.44
2018-01-16T12:05:11.790Z,7.57
2018-01-16T12:10:13.086Z,7.58
2018-01-16T12:15:15.151Z,7.41
2018-01-16T12:20:16.460Z,7.46
2018-01-16T12:25:17.779Z,7.44
2018-01-16T12:30:19.872Z,7.43
2018-01-16T12:35:21.937Z,7.39
2018-01-16T12:40:23.236Z,7.62
2018-01-16T12:45:24.551Z,7.64
2018-01-16T12:50:25.857Z,7.83
2018-01-16T12:55:27.956Z,7.90
2018-01-16T13:00:30.076Z,8.31
2018-01-16T13:05:32.695Z,8.44
2018-01-16T13:10:34.237Z,8.33
2018-01-16T13:15:36.386Z,8.36
2018-01-16T13:20:37.991Z,8.37
2018-01-16T13:25:39.730Z,8.24
2018-01-16T13:30:41.792Z,7.99
2018-01-16T13:35:43.416Z,7.90
2018-01-16T13:40:44.894Z,7.78
2018-01-16T13:45:46.299Z,7.49
2018-01-16T13:50:48.624Z,7.27
2018-01-16T13:55:50.387Z,7.22
2018-01-16T14:00:51.761Z,7.23
2018-01-16T14:05:53.854Z,7.15
2018-01-16T14:10:55.162Z,7.26
2018-01-16T14:15:58.979Z,7.31
2018-01-16T14:21:00.369Z,7.37
2018-01-16T14:26:01.691Z,7.13
2018-01-16T14:31:03.756Z,6.98
2018-01-16T14:36:05.118Z,6.73
2018-01-16T14:41:06.444Z,6.77
2018-01-16T14:46:07.805Z,6.74
2018-01-16T14:51:09.649Z,7.04
2018-01-16T14:56:11.040Z,6.92
2018-01-16T15:01:12.541Z,6.73
2018-01-16T15:06:13.911Z,6.77
2018-01-16T15:11:15.669Z,6.66
2018-01-16T15:16:16.983Z,6.49
2018-01-16T15:21:18.362Z,6.37
2018-01-16T15:26:19.718Z,6.31
2018-01-16T15:31:21.812Z,6.22
2018-01-16T15:36:23.859Z,6.22
2018-01-16T15:41:25.205Z,6.32
2018-01-16T15:46:26.543Z,6.24
2018-01-16T15:51:27.859Z,6.12
2018-01-16T15:56:29.171Z,6.27
2018-01-16T16:01:30.533Z,6.25
2018-01-16T16:06:31.871Z,6.23
2018-01-16T16:11:33.947Z,6.02
2018-01-16T16:16:35.284Z,6.01
2018-01-16T16:21:36.587Z,5.95
2018-01-16T16:26:37.936Z,5.80
2018-01-16T16:31:39.979Z,5.72
2018-01-16T16:36:41.319Z,5.60
2018-01-16T16:41:42.627Z,5.66
2018-01-16T16:46:51.556Z,5.70
2018-01-16T16:51:52.867Z,5.94
2018-01-16T16:56:54.185Z,6.13
2018-01-16T17:01:55.478Z,6.35
2018-01-16T17:06:56.783Z,6.35
2018-01-16T17:11:58.158Z,6.41
2018-01-16T17:16:59.482Z,6.48
2018-01-16T17:22:00.832Z,6.55
2018-01-16T17:27:02.211Z,6.46
2018-01-16T17:32:04.299Z,6.03
2018-01-16T17:37:05.658Z,5.72
2018-01-16T17:42:07.056Z,5.57
2018-01-16T17:47:08.401Z,5.65
2018-01-16T17:52:09.731Z,5.68
2018-01-16T17:57:11.060Z,5.67
2018-01-16T18:02:13.133Z,5.78
2018-01-16T18:07:14.451Z,5.89
2018-01-16T18:12:16.558Z,5.87
2018-01-16T18:17:17.868Z,5.79
2018-01-16T18:22:19.278Z,5.72
2018-01-16T18:27:20.651Z,5.84
2018-01-16T18:32:22.018Z,5.97
2018-01-16T18:37:23.323Z,6.02
2018-01-16T18:42:25.442Z,6.04
2018-01-16T18:47:26.744Z,6.13
2018-01-16T18:52:28.732Z,6.07
2018-01-16T18:57:30.100Z,5.84
2018-01-16T19:02:32.234Z,5.84
2018-01-16T19:07:33.619Z,5.96
2018-01-16T19:12:34.930Z,5.89
2018-01-16T19:17:36.248Z,6.03
2018-01-16T19:22:37.555Z,6.15
2018-01-16T19:27:38.868Z,6.08
2018-01-16T19:32:41.996Z,5.82
2018-01-16T19:37:43.388Z,5.59
2018-01-16T19:42:44.798Z,5.68
2018-01-16T19:47:46.827Z,5.94
2018-01-16T19:52:49.817Z,6.02
2018-01-16T19:57:51.194Z,6.09
2018-01-16T20:02:53.319Z,5.98
2018-01-16T20:07:54.674Z,5.71
2018-01-16T20:12:55.982Z,5.45
2018-01-16T20:17:58.059Z,5.65
2018-01-16T20:22:59.432Z,5.84
2018-01-16T20:28:00.765Z,5.65
2018-01-16T20:33:02.085Z,5.62
2018-01-16T20:38:03.414Z,5.53
2018-01-16T20:43:04.760Z,5.65
2018-01-16T20:48:06.092Z,5.63
2018-01-16T20:53:07.413Z,5.79
2018-01-16T20:58:09.496Z,5.89
2018-01-16T21:03:10.884Z,6.03
2018-01-16T21:08:12.249Z,6.04
2018-01-16T21:13:13.640Z,5.96
2018-01-16T21:18:15.540Z,5.80
2018-01-16T21:23:17.459Z,5.91
2018-01-16T21:28:19.451Z,5.83
2018-01-16T21:33:20.783Z,5.55
2018-01-16T21:38:22.128Z,5.53
2018-01-16T21:43:23.447Z,5.38
2018-01-16T21:48:24.781Z,5.52
2018-01-16T21:53:26.115Z,5.57
2018-01-16T21:58:27.443Z,5.53
2018-01-16T22:03:29.503Z,5.55
2018-01-16T22:08:30.855Z,5.48
2018-01-16T22:13:32.174Z,5.55
2018-01-16T22:18:33.550Z,5.64
2018-01-16T22:23:34.869Z,5.60
2018-01-16T22:28:36.231Z,5.71
2018-01-16T22:33:37.565Z,5.75
2018-01-16T22:38:38.883Z,5.66
2018-01-16T22:43:40.967Z,5.63
2018-01-16T22:48:42.318Z,5.67
2018-01-16T22:53:43.642Z,5.90
2018-01-16T22:58:44.951Z,5.87
2018-01-16T23:03:47.052Z,6.00
2018-01-16T23:08:49.153Z,5.93
2018-01-16T23:13:50.471Z,5.83
2018-01-16T23:18:51.840Z,5.78
2018-01-16T23:23:53.938Z,5.87
2018-01-16T23:29:00.820Z,5.92
2018-01-16T23:34:02.156Z,5.92
2018-01-16T23:39:04.828Z,5.94
2018-01-16T23:44:06.155Z,5.84
2018-01-16T23:49:07.502Z,5.67
2018-01-16T23:54:08.893Z,5.82
2018-01-16T23:59:10.207Z,5.66
